createdAt,value
2022-09-11T00:00:00.889Z,85.62
2022-09-11T00:02:31.348Z,85.85
2022-09-11T00:05:01.759Z,85.75
2022-09-11T00:07:32.119Z,85.70
2022-09-11T00:10:02.481Z,85.56
2022-09-11T00:12:33.242Z,85.48
2022-09-11T00:15:03.605Z,85.53
2022-09-11T00:17:34.005Z,85.63
2022-09-11T00:20:05.570Z,85.56
2022-09-11T00:22:36.000Z,85.58
2022-09-11T00:25:06.756Z,85.60
2022-09-11T00:27:37.075Z,85.62
2022-09-11T00:30:08.405Z,85.35
2022-09-11T00:32:38.969Z,85.57
2022-09-11T00:35:10.016Z,85.53
2022-09-11T00:37:40.389Z,85.60
2022-09-11T00:40:11.433Z,85.60
2022-09-11T00:42:42.347Z,85.62
2022-09-11T00:45:25.142Z,85.52
2022-09-11T00:47:58.815Z,85.43
2022-09-11T00:50:31.347Z,85.36
2022-09-11T00:53:08.057Z,85.48
2022-09-11T00:55:40.974Z,85.41
2022-09-11T00:58:14.466Z,85.32
2022-09-11T01:00:46.375Z,85.06
2022-09-11T01:03:17.026Z,85.10
2022-09-11T01:05:48.198Z,85.05
2022-09-11T01:08:18.574Z,85.31
2022-09-11T01:11:13.478Z,85.09
2022-09-11T01:13:52.889Z,85.17
2022-09-11T01:16:53.518Z,85.15
2022-09-11T01:20:03.544Z,85.23
2022-09-11T01:22:40.076Z,85.25
2022-09-11T01:25:37.651Z,85.30
2022-09-11T01:28:11.111Z,85.43
2022-09-11T01:30:46.142Z,85.44
2022-09-11T01:33:25.608Z,85.33
2022-09-11T01:36:11.701Z,85.34
2022-09-11T01:38:48.085Z,85.29
2022-09-11T01:41:55.127Z,85.54
2022-09-11T01:44:37.203Z,85.38
2022-09-11T01:47:10.692Z,85.42
2022-09-11T01:49:48.100Z,85.55
2022-09-11T01:52:21.462Z,85.77
2022-09-11T01:54:54.848Z,85.95
2022-09-11T01:57:46.264Z,86.04
2022-09-11T02:00:17.240Z,86.05
2022-09-11T02:02:53.538Z,86.26
2022-09-11T02:05:29.718Z,86.13
2022-09-11T02:08:06.197Z,86.26
2022-09-11T02:10:39.586Z,86.09
2022-09-11T02:13:27.782Z,86.31
2022-09-11T02:16:00.269Z,86.23
2022-09-11T02:18:33.764Z,86.25
2022-09-11T02:21:04.122Z,86.29
2022-09-11T02:23:34.438Z,86.36
2022-09-11T02:26:06.077Z,86.35
2022-09-11T02:28:37.346Z,86.47
2022-09-11T02:31:07.766Z,86.48
2022-09-11T02:33:39.098Z,86.47
2022-09-11T02:36:24.750Z,86.51
2022-09-11T02:39:00.899Z,86.28
2022-09-11T02:41:50.055Z,86.09
2022-09-11T02:44:23.735Z,86.27
2022-09-11T02:47:05.788Z,85.93
2022-09-11T02:50:00.202Z,86.00
2022-09-11T02:52:40.978Z,86.07
2022-09-11T02:55:41.406Z,86.14
2022-09-11T02:58:17.335Z,86.12
2022-09-11T03:00:47.959Z,86.20
2022-09-11T03:03:19.260Z,86.05
2022-09-11T03:05:49.549Z,85.66
2022-09-11T03:08:20.340Z,85.85
2022-09-11T03:10:50.717Z,85.91
2022-09-11T03:13:21.086Z,85.67
2022-09-11T03:15:51.471Z,85.59
2022-09-11T03:18:21.768Z,85.23
2022-09-11T03:20:52.070Z,85.31
2022-09-11T03:23:22.677Z,85.13
2022-09-11T03:25:53.184Z,84.90
2022-09-11T03:28:24.218Z,84.75
2022-09-11T03:30:54.513Z,84.66
2022-09-11T03:33:25.078Z,84.45
2022-09-11T03:35:55.777Z,84.40
2022-09-11T03:38:26.100Z,84.29
2022-09-11T03:40:56.480Z,84.27
2022-09-11T03:43:26.813Z,84.38
2022-09-11T03:45:57.293Z,84.86
2022-09-11T03:48:29.174Z,84.65
2022-09-11T03:50:59.916Z,84.50
2022-09-11T03:53:32.035Z,84.81
2022-09-11T03:56:04.072Z,84.77
2022-09-11T03:58:34.730Z,84.86
2022-09-11T04:01:13.879Z,84.61
2022-09-11T04:03:44.343Z,84.79
2022-09-11T04:06:14.789Z,84.75
2022-09-11T04:08:45.329Z,84.78
2022-09-11T04:11:16.482Z,85.15
2022-09-11T04:13:46.909Z,85.06
2022-09-11T04:16:19.275Z,85.23
2022-09-11T04:18:51.271Z,85.30
2022-09-11T04:21:21.644Z,85.19
2022-09-11T04:23:54.727Z,85.47
2022-09-11T04:26:26.644Z,85.61
2022-09-11T04:28:57.243Z,85.70
2022-09-11T04:31:27.982Z,85.53
2022-09-11T04:33:59.497Z,85.58
2022-09-11T04:36:29.887Z,85.52
2022-09-11T04:39:00.881Z,85.76
2022-09-11T04:41:31.358Z,85.64
2022-09-11T04:44:05.246Z,85.76
2022-09-11T04:46:34.486Z,85.46
2022-09-11T04:49:05.107Z,85.59
2022-09-11T04:51:40.591Z,85.71
2022-09-11T04:54:16.499Z,85.77
2022-09-11T04:56:46.881Z,85.77
2022-09-11T04:59:20.316Z,85.79
2022-09-11T05:01:52.154Z,85.91
2022-09-11T05:04:25.953Z,86.03
2022-09-11T05:06:55.034Z,85.86
2022-09-11T05:09:27.791Z,85.87
2022-09-11T05:11:58.121Z,85.92
2022-09-11T05:14:30.968Z,86.07
2022-09-11T05:17:01.529Z,85.80
2022-09-11T05:19:31.949Z,85.87
2022-09-11T05:22:02.316Z,85.91
2022-09-11T05:24:32.632Z,85.82
2022-09-11T05:27:03.059Z,85.83
2022-09-11T05:29:33.404Z,85.97
2022-09-11T05:32:05.914Z,85.75
2022-09-11T05:34:36.246Z,85.80
2022-09-11T05:37:06.660Z,85.61
2022-09-11T05:39:37.215Z,85.66
2022-09-11T05:42:07.788Z,85.53
2022-09-11T05:44:38.175Z,85.58
2022-09-11T05:47:08.605Z,85.34
2022-09-11T05:49:38.945Z,84.50
2022-09-11T05:52:09.708Z,85.27
2022-09-11T05:54:40.565Z,85.38
2022-09-11T05:57:10.947Z,85.44
2022-09-11T05:59:41.267Z,85.43
2022-09-11T06:02:12.298Z,85.27
2022-09-11T06:04:42.650Z,85.43
2022-09-11T06:07:13.159Z,85.44
2022-09-11T06:09:43.620Z,85.31
2022-09-11T06:12:13.990Z,85.22
2022-09-11T06:14:44.316Z,85.05
2022-09-11T06:17:14.696Z,85.13
2022-09-11T06:19:45.109Z,84.96
2022-09-11T06:22:15.460Z,84.92
2022-09-11T06:24:47.053Z,84.77
2022-09-11T06:27:19.039Z,84.61
2022-09-11T06:29:49.537Z,84.53
2022-09-11T06:32:19.955Z,84.59
2022-09-11T06:34:50.351Z,84.58
2022-09-11T06:37:21.155Z,84.38
2022-09-11T06:39:51.853Z,84.34
2022-09-11T06:42:22.865Z,84.29
2022-09-11T06:44:53.271Z,83.84
2022-09-11T06:47:23.669Z,83.99
2022-09-11T06:49:53.994Z,83.96
2022-09-11T06:52:24.303Z,83.31
2022-09-11T06:54:54.715Z,83.36
2022-09-11T06:57:25.076Z,83.44
2022-09-11T06:59:57.196Z,83.39
2022-09-11T07:02:27.854Z,82.66
2022-09-11T07:04:58.240Z,82.90
2022-09-11T07:07:28.561Z,82.82
2022-09-11T07:10:00.503Z,82.75
2022-09-11T07:12:32.017Z,83.07
2022-09-11T07:15:02.350Z,82.73
2022-09-11T07:17:32.918Z,82.54
2022-09-11T07:20:05.872Z,82.37
2022-09-11T07:22:36.187Z,82.16
2022-09-11T07:25:07.852Z,81.69
2022-09-11T07:27:38.283Z,82.09
2022-09-11T07:30:09.490Z,81.76
2022-09-11T07:32:39.835Z,81.67
2022-09-11T07:35:10.249Z,81.60
2022-09-11T07:37:40.585Z,81.48
2022-09-11T07:40:12.216Z,80.94
2022-09-11T07:42:42.676Z,80.50
2022-09-11T07:45:13.040Z,79.96
2022-09-11T07:47:43.399Z,79.33
2022-09-11T07:50:14.328Z,79.03
2022-09-11T07:52:44.672Z,77.36
2022-09-11T07:55:15.118Z,77.41
2022-09-11T07:57:46.460Z,77.43
2022-09-11T08:00:17.182Z,76.78
2022-09-11T08:02:48.796Z,76.29
2022-09-11T08:05:19.446Z,76.14
2022-09-11T08:07:49.834Z,75.94
2022-09-11T08:10:28.203Z,75.72
2022-09-11T08:12:54.781Z,76.26
2022-09-11T08:15:25.028Z,76.74
2022-09-11T08:17:55.441Z,77.17
2022-09-11T08:20:25.823Z,77.12
2022-09-11T08:22:56.328Z,75.93
2022-09-11T08:25:28.268Z,77.02
2022-09-11T08:27:59.653Z,75.88
2022-09-11T08:30:30.041Z,75.37
2022-09-11T08:33:01.371Z,74.97
2022-09-11T08:35:31.852Z,75.34
2022-09-11T08:38:03.323Z,74.54
2022-09-11T08:40:37.944Z,74.91
2022-09-11T08:43:11.420Z,75.33
2022-09-11T08:45:41.731Z,75.98
2022-09-11T08:48:13.337Z,76.84
2022-09-11T08:50:45.090Z,77.90
2022-09-11T08:53:18.823Z,77.26
2022-09-11T08:55:52.277Z,76.81
2022-09-11T08:59:02.150Z,77.58
2022-09-11T09:01:50.409Z,77.13
2022-09-11T09:04:40.598Z,77.79
2022-09-11T09:07:13.954Z,77.81
2022-09-11T09:09:59.389Z,78.17
2022-09-11T09:12:41.892Z,77.20
2022-09-11T09:15:36.327Z,78.16
2022-09-11T09:18:21.814Z,78.10
2022-09-11T09:21:13.685Z,78.05
2022-09-11T09:23:47.073Z,78.64
2022-09-11T09:26:21.096Z,79.29
2022-09-11T09:28:54.638Z,78.64
2022-09-11T09:31:28.105Z,77.70
2022-09-11T09:34:04.168Z,76.03
2022-09-11T09:36:49.390Z,74.51
2022-09-11T09:39:20.347Z,74.45
2022-09-11T09:41:54.089Z,73.67
2022-09-11T09:44:43.979Z,73.42
2022-09-11T09:47:15.685Z,73.33
2022-09-11T09:49:46.643Z,72.73
2022-09-11T09:52:22.254Z,72.41
2022-09-11T09:54:59.716Z,74.13
2022-09-11T09:57:35.422Z,75.23
2022-09-11T10:00:09.274Z,75.42
2022-09-11T10:02:50.477Z,76.75
2022-09-11T10:05:29.577Z,77.88
2022-09-11T10:08:03.210Z,77.11
2022-09-11T10:10:36.839Z,75.89
2022-09-11T10:13:19.883Z,74.98
2022-09-11T10:15:50.293Z,72.93
2022-09-11T10:18:40.177Z,72.83
2022-09-11T10:21:16.598Z,72.26
2022-09-11T10:24:01.214Z,71.96
2022-09-11T10:26:37.483Z,71.22
2022-09-11T10:29:16.697Z,70.99
2022-09-11T10:31:52.759Z,70.99
2022-09-11T10:34:26.056Z,70.24
2022-09-11T10:37:00.680Z,70.50
2022-09-11T10:39:34.703Z,70.73
2022-09-11T10:42:11.774Z,69.92
2022-09-11T10:44:47.348Z,69.87
2022-09-11T10:47:29.092Z,68.13
2022-09-11T10:50:18.900Z,66.75
2022-09-11T10:53:19.502Z,66.99
2022-09-11T10:56:06.021Z,66.90
2022-09-11T10:58:39.627Z,69.22
2022-09-11T11:01:10.294Z,70.75
2022-09-11T11:03:40.702Z,71.36
2022-09-11T11:06:49.188Z,73.48
2022-09-11T11:09:43.807Z,75.29
2022-09-11T11:12:23.057Z,76.18
2022-09-11T11:15:30.078Z,77.06
2022-09-11T11:18:15.446Z,77.25
2022-09-11T11:20:57.669Z,76.58
2022-09-11T11:23:55.400Z,75.99
2022-09-11T11:26:43.094Z,73.16
2022-09-11T11:29:45.862Z,70.61
2022-09-11T11:32:27.947Z,59.80
2022-09-11T11:35:07.122Z,52.16
2022-09-11T11:37:45.396Z,50.37
2022-09-11T11:40:46.372Z,52.08
2022-09-11T11:43:19.749Z,55.23
2022-09-11T11:45:56.044Z,57.50
2022-09-11T11:48:39.725Z,59.71
2022-09-11T11:51:21.948Z,62.05
2022-09-11T11:54:01.302Z,60.60
2022-09-11T11:56:54.830Z,55.77
2022-09-11T11:59:29.915Z,52.71
2022-09-11T12:02:18.887Z,52.13
2022-09-11T12:04:55.200Z,54.79
2022-09-11T12:07:34.175Z,57.36
2022-09-11T12:10:07.124Z,58.70
2022-09-11T12:12:47.721Z,60.77
2022-09-11T12:15:21.377Z,61.91
2022-09-11T12:18:03.606Z,62.96
2022-09-11T12:20:42.159Z,64.55
2022-09-11T12:23:32.453Z,66.04
2022-09-11T12:26:11.681Z,65.69
2022-09-11T12:28:42.285Z,66.39
2022-09-11T12:31:14.875Z,66.00
2022-09-11T12:33:50.776Z,65.60
2022-09-11T12:36:28.510Z,65.38
2022-09-11T12:39:07.185Z,66.19
2022-09-11T12:41:38.346Z,65.59
2022-09-11T12:44:12.485Z,65.52
2022-09-11T12:46:51.513Z,65.18
2022-09-11T12:49:23.553Z,65.29
2022-09-11T12:51:59.729Z,65.37
2022-09-11T12:54:35.962Z,65.61
2022-09-11T12:57:19.810Z,65.39
2022-09-11T12:59:56.514Z,65.11
2022-09-11T13:02:35.399Z,65.90
2022-09-11T13:05:09.136Z,66.88
2022-09-11T13:07:45.352Z,66.82
2022-09-11T13:10:33.972Z,67.27
2022-09-11T13:13:07.190Z,67.12
2022-09-11T13:15:41.141Z,67.29
2022-09-11T13:18:31.158Z,67.88
2022-09-11T13:21:04.660Z,69.07
2022-09-11T13:23:34.973Z,67.40
2022-09-11T13:26:07.995Z,67.49
2022-09-11T13:28:48.067Z,69.51
2022-09-11T13:31:33.845Z,70.70
2022-09-11T13:34:10.022Z,70.86
2022-09-11T13:36:41.427Z,70.03
2022-09-11T13:39:13.602Z,70.17
2022-09-11T13:41:46.783Z,69.58
2022-09-11T13:44:39.934Z,68.69
2022-09-11T13:47:22.100Z,67.80
2022-09-11T13:49:55.741Z,65.12
2022-09-11T13:52:28.707Z,64.83
2022-09-11T13:55:04.466Z,64.17
2022-09-11T13:57:35.208Z,63.71
2022-09-11T14:00:05.829Z,64.10
2022-09-11T14:02:48.387Z,63.89
2022-09-11T14:05:22.082Z,63.72
2022-09-11T14:08:07.809Z,63.58
2022-09-11T14:10:41.200Z,64.13
2022-09-11T14:13:20.479Z,64.32
2022-09-11T14:16:10.833Z,63.98
2022-09-11T14:19:00.825Z,64.09
2022-09-11T14:21:35.904Z,63.01
2022-09-11T14:24:09.295Z,64.64
2022-09-11T14:26:43.098Z,64.45
2022-09-11T14:29:31.667Z,64.81
2022-09-11T14:32:34.116Z,64.54
2022-09-11T14:35:07.524Z,64.26
2022-09-11T14:37:45.641Z,65.08
2022-09-11T14:40:19.172Z,65.02
2022-09-11T14:42:49.846Z,65.65
2022-09-11T14:45:23.697Z,66.53
2022-09-11T14:47:54.382Z,66.99
2022-09-11T14:50:24.950Z,66.35
2022-09-11T14:52:55.353Z,66.58
2022-09-11T14:55:25.716Z,67.27
2022-09-11T14:57:56.222Z,67.50
2022-09-11T15:00:26.679Z,66.78
2022-09-11T15:02:57.124Z,66.19
2022-09-11T15:05:28.022Z,67.00
2022-09-11T15:08:00.382Z,66.99
2022-09-11T15:10:32.103Z,68.52
2022-09-11T15:13:03.016Z,69.22
2022-09-11T15:15:34.475Z,70.08
2022-09-11T15:18:05.912Z,71.05
2022-09-11T15:20:37.263Z,71.55
2022-09-11T15:23:07.573Z,71.50
2022-09-11T15:25:37.999Z,70.72
2022-09-11T15:28:09.954Z,71.61
2022-09-11T15:30:40.387Z,71.68
2022-09-11T15:33:11.413Z,71.54
2022-09-11T15:35:41.786Z,71.24
2022-09-11T15:38:12.179Z,71.70
2022-09-11T15:40:42.586Z,71.62
2022-09-11T15:43:13.470Z,72.07
2022-09-11T15:45:44.335Z,70.50
2022-09-11T15:48:14.858Z,70.96
2022-09-11T15:50:45.514Z,71.44
2022-09-11T15:53:15.818Z,70.68
2022-09-11T15:55:46.121Z,71.37
2022-09-11T15:58:16.591Z,71.57
2022-09-11T16:00:47.103Z,71.60
2022-09-11T16:03:17.690Z,72.62
2022-09-11T16:05:48.111Z,71.86
2022-09-11T16:08:18.545Z,72.53
2022-09-11T16:10:49.836Z,72.17
2022-09-11T16:13:21.132Z,72.29
2022-09-11T16:15:55.199Z,72.55
2022-09-11T16:18:25.585Z,72.64
2022-09-11T16:20:59.757Z,72.39
2022-09-11T16:23:30.063Z,73.32
2022-09-11T16:26:05.868Z,73.79
2022-09-11T16:28:38.487Z,73.96
2022-09-11T16:31:09.322Z,74.75
2022-09-11T16:33:43.840Z,74.65
2022-09-11T16:36:17.544Z,74.09
2022-09-11T16:38:50.655Z,74.24
2022-09-11T16:41:23.464Z,74.96
2022-09-11T16:43:54.977Z,75.12
2022-09-11T16:46:26.772Z,74.58
2022-09-11T16:49:01.476Z,74.97
2022-09-11T16:51:30.022Z,75.34
2022-09-11T16:54:00.740Z,73.86
2022-09-11T16:56:31.359Z,73.86
2022-09-11T16:59:02.101Z,74.99
2022-09-11T17:01:32.845Z,75.60
2022-09-11T17:04:03.759Z,75.63
2022-09-11T17:06:34.482Z,75.51
2022-09-11T17:09:05.339Z,76.33
2022-09-11T17:11:37.112Z,76.76
2022-09-11T17:14:08.153Z,76.70
2022-09-11T17:16:39.446Z,77.16
2022-09-11T17:19:10.868Z,77.46
2022-09-11T17:21:41.173Z,77.64
2022-09-11T17:24:12.710Z,77.91
2022-09-11T17:26:43.048Z,77.68
2022-09-11T17:29:13.713Z,77.79
2022-09-11T17:31:44.052Z,77.66
2022-09-11T17:34:14.657Z,78.00
2022-09-11T17:36:45.119Z,78.12
2022-09-11T17:39:15.505Z,78.20
2022-09-11T17:41:46.314Z,77.87
2022-09-11T17:44:17.043Z,78.30
2022-09-11T17:46:47.703Z,78.33
2022-09-11T17:49:18.133Z,78.33
2022-09-11T17:51:49.012Z,78.55
2022-09-11T17:54:19.390Z,78.78
2022-09-11T17:56:50.533Z,79.11
2022-09-11T17:59:21.193Z,79.14
2022-09-11T18:01:51.851Z,79.72
2022-09-11T18:04:22.295Z,79.94
2022-09-11T18:06:52.804Z,80.16
2022-09-11T18:09:23.267Z,80.26
2022-09-11T18:11:54.545Z,80.40
2022-09-11T18:14:27.596Z,80.54
2022-09-11T18:16:59.528Z,80.68
2022-09-11T18:19:30.140Z,80.58
2022-09-11T18:22:00.787Z,80.91
2022-09-11T18:24:31.151Z,81.16
2022-09-11T18:27:01.814Z,81.30
2022-09-11T18:29:32.605Z,81.64
2022-09-11T18:32:03.481Z,81.73
2022-09-11T18:34:34.322Z,81.81
2022-09-11T18:37:04.595Z,82.15
2022-09-11T18:39:35.069Z,82.26
2022-09-11T18:42:07.117Z,82.06
2022-09-11T18:44:37.437Z,82.45
2022-09-11T18:47:07.887Z,81.97
2022-09-11T18:49:38.361Z,82.39
2022-09-11T18:52:08.775Z,82.67
2022-09-11T18:54:39.351Z,82.83
2022-09-11T18:57:09.814Z,82.92
2022-09-11T18:59:40.165Z,83.14
2022-09-11T19:02:11.183Z,83.33
2022-09-11T19:04:41.827Z,83.28
2022-09-11T19:07:14.672Z,83.23
2022-09-11T19:09:46.110Z,83.32
2022-09-11T19:12:18.356Z,83.36
2022-09-11T19:14:49.392Z,83.74
2022-09-11T19:17:19.800Z,83.65
2022-09-11T19:19:51.752Z,83.86
2022-09-11T19:22:24.091Z,84.17
2022-09-11T19:24:54.422Z,83.98
2022-09-11T19:27:26.711Z,84.12
2022-09-11T19:29:57.011Z,84.20
2022-09-11T19:32:28.340Z,84.39
2022-09-11T19:35:00.269Z,84.48
2022-09-11T19:37:31.040Z,84.62
2022-09-11T19:40:01.481Z,84.74
2022-09-11T19:42:32.387Z,84.74
2022-09-11T19:45:10.250Z,84.43
2022-09-11T19:47:40.924Z,84.51
2022-09-11T19:50:13.013Z,84.57
2022-09-11T19:52:43.319Z,84.50
2022-09-11T19:55:13.748Z,84.69
2022-09-11T19:57:44.108Z,84.82
2022-09-11T20:00:14.567Z,84.92
2022-09-11T20:02:48.030Z,85.15
2022-09-11T20:05:18.609Z,85.24
2022-09-11T20:07:48.906Z,85.25
2022-09-11T20:10:19.546Z,85.15
2022-09-11T20:12:50.411Z,85.28
2022-09-11T20:15:20.860Z,85.20
2022-09-11T20:17:51.251Z,85.48
2022-09-11T20:20:21.653Z,85.65
2022-09-11T20:22:51.982Z,85.73
2022-09-11T20:25:23.582Z,85.82
2022-09-11T20:27:53.907Z,85.64
2022-09-11T20:30:25.060Z,85.75
2022-09-11T20:32:55.532Z,85.95
2022-09-11T20:35:26.064Z,85.92
2022-09-11T20:37:56.368Z,85.98
2022-09-11T20:40:26.712Z,85.98
2022-09-11T20:42:57.051Z,86.01
2022-09-11T20:45:27.404Z,85.86
2022-09-11T20:47:57.818Z,85.75
2022-09-11T20:50:28.186Z,85.67
2022-09-11T20:53:00.397Z,85.51
2022-09-11T20:55:30.584Z,85.45
2022-09-11T20:58:01.046Z,85.34
2022-09-11T21:00:31.412Z,85.26
2022-09-11T21:03:01.782Z,85.11
2022-09-11T21:05:32.241Z,84.90
2022-09-11T21:08:03.024Z,84.92
2022-09-11T21:10:37.484Z,84.80
2022-09-11T21:13:09.533Z,84.51
2022-09-11T21:15:44.697Z,84.30
2022-09-11T21:18:15.832Z,84.25
2022-09-11T21:20:54.736Z,84.20
2022-09-11T21:23:25.222Z,84.16
2022-09-11T21:25:55.821Z,83.94
2022-09-11T21:28:26.124Z,83.70
2022-09-11T21:30:58.704Z,83.61
2022-09-11T21:33:29.527Z,83.47
2022-09-11T21:35:59.893Z,83.42
2022-09-11T21:38:31.508Z,83.32
2022-09-11T21:41:04.036Z,82.66
2022-09-11T21:43:34.761Z,82.56
2022-09-11T21:46:06.823Z,82.58
2022-09-11T21:48:39.020Z,82.79
2022-09-11T21:51:17.726Z,82.88
2022-09-11T21:53:49.980Z,82.54
2022-09-11T21:56:31.981Z,82.94
2022-09-11T21:59:02.579Z,83.00
2022-09-11T22:01:33.270Z,82.99
2022-09-11T22:04:04.063Z,83.05
2022-09-11T22:06:34.478Z,83.17
2022-09-11T22:09:05.132Z,83.32
2022-09-11T22:11:35.682Z,83.43
2022-09-11T22:14:06.506Z,83.44
2022-09-11T22:16:36.889Z,83.62
2022-09-11T22:19:08.891Z,83.48
2022-09-11T22:21:39.817Z,83.35
2022-09-11T22:24:10.304Z,82.69
2022-09-11T22:26:40.816Z,82.67
2022-09-11T22:29:11.173Z,82.16
2022-09-11T22:31:41.626Z,82.09
2022-09-11T22:34:12.224Z,81.77
2022-09-11T22:36:42.546Z,81.49
2022-09-11T22:39:12.979Z,81.55
2022-09-11T22:41:43.755Z,81.68
2022-09-11T22:44:14.432Z,80.89
2022-09-11T22:46:48.740Z,81.00
2022-09-11T22:49:16.925Z,80.82
2022-09-11T22:51:47.478Z,80.91
2022-09-11T22:54:18.027Z,80.85
2022-09-11T22:56:48.439Z,81.19
2022-09-11T22:59:18.940Z,81.33
2022-09-11T23:01:49.381Z,81.23
2022-09-11T23:04:19.793Z,81.48
2022-09-11T23:07:08.182Z,81.70
2022-09-11T23:09:39.948Z,81.65
2022-09-11T23:12:10.320Z,81.91
2022-09-11T23:14:42.184Z,82.21
2022-09-11T23:17:12.559Z,82.51
2022-09-11T23:19:42.880Z,83.11
2022-09-11T23:22:13.274Z,82.97
2022-09-11T23:24:43.681Z,82.69
2022-09-11T23:27:14.086Z,83.20
2022-09-11T23:29:44.483Z,83.41
2022-09-11T23:32:14.795Z,83.47
2022-09-11T23:34:45.168Z,83.78
2022-09-11T23:37:15.484Z,84.00
2022-09-11T23:39:47.223Z,83.67
2022-09-11T23:42:18.042Z,83.78
2022-09-11T23:44:48.355Z,83.97
2022-09-11T23:47:18.745Z,84.17
2022-09-11T23:49:49.058Z,84.17
2022-09-11T23:52:19.451Z,84.14
2022-09-11T23:54:49.755Z,84.34
2022-09-11T23:57:20.257Z,84.15
2022-09-11T23:59:50.626Z,84.34
